sensor_id;sensor_type;location;lat;lon;timestamp;P1;P2;P0;N1;N25;N10
84107;NextPM;74203;50.730;1.626;2024-03-06T00:01:58;16.40;12.15;10.90;162.50;163.00;163.50
84107;NextPM;74203;50.730;1.626;2024-03-06T00:04:06;16.25;12.00;10.80;164.50;165.00;165.50
84107;NextPM;74203;50.730;1.626;2024-03-06T00:06:13;16.25;12.05;10.80;165.00;165.00;166.00
84107;NextPM;74203;50.730;1.626;2024-03-06T00:08:20;15.45;11.40;10.30;154.00;155.00;155.00
84107;NextPM;74203;50.730;1.626;2024-03-06T00:10:28;15.45;11.40;10.25;154.00;155.00;155.00
84107;NextPM;74203;50.730;1.626;2024-03-06T00:12:35;15.35;11.35;10.25;155.00;156.00;156.00
84107;NextPM;74203;50.730;1.626;2024-03-06T00:14:42;14.75;10.90;9.80;144.50;145.00;145.50
84107;NextPM;74203;50.730;1.626;2024-03-06T00:16:50;14.80;10.95;9.85;148.50;149.00;149.00
84107;NextPM;74203;50.730;1.626;2024-03-06T00:18:58;14.60;10.80;9.75;145.50;146.00;146.00
84107;NextPM;74203;50.730;1.626;2024-03-06T00:21:06;13.95;10.30;9.25;140.00;140.50;140.50
84107;NextPM;74203;50.730;1.626;2024-03-06T00:23:14;13.90;10.30;9.25;138.50;139.00;139.50
84107;NextPM;74203;50.730;1.626;2024-03-06T00:25:21;13.50;10.00;9.00;136.50;137.50;137.50
84107;NextPM;74203;50.730;1.626;2024-03-06T00:27:28;13.65;10.10;9.10;134.50;135.00;135.00
84107;NextPM;74203;50.730;1.626;2024-03-06T00:29:36;13.30;9.85;8.85;133.00;133.50;133.50
84107;NextPM;74203;50.730;1.626;2024-03-06T00:31:44;13.40;9.95;8.95;132.50;133.00;133.00
84107;NextPM;74203;50.730;1.626;2024-03-06T00:33:52;13.05;9.60;8.65;131.00;131.50;131.50
84107;NextPM;74203;50.730;1.626;2024-03-06T00:35:59;13.10;9.65;8.75;132.00;132.50;133.00
84107;NextPM;74203;50.730;1.626;2024-03-06T00:38:07;12.30;9.10;8.15;122.50;123.00;123.00
84107;NextPM;74203;50.730;1.626;2024-03-06T00:40:14;12.05;8.85;8.00;119.50;120.00;120.00
84107;NextPM;74203;50.730;1.626;2024-03-06T00:42:22;11.95;8.85;7.95;119.00;119.00;119.50
84107;NextPM;74203;50.730;1.626;2024-03-06T00:44:30;11.45;8.45;7.60;114.00;114.50;115.00
84107;NextPM;74203;50.730;1.626;2024-03-06T00:46:37;11.10;8.20;7.40;113.00;113.50;114.00
84107;NextPM;74203;50.730;1.626;2024-03-06T00:48:45;11.50;8.50;7.65;114.50;115.00;115.50
84107;NextPM;74203;50.730;1.626;2024-03-06T00:50:53;11.15;8.20;7.40;111.00;111.00;111.00
84107;NextPM;74203;50.730;1.626;2024-03-06T00:53:00;10.80;8.00;7.20;108.00;108.50;108.50
84107;NextPM;74203;50.730;1.626;2024-03-06T00:55:09;10.35;7.65;6.85;103.50;104.00;104.00
84107;NextPM;74203;50.730;1.626;2024-03-06T00:57:16;10.35;7.65;6.90;104.00;104.00;104.50
84107;NextPM;74203;50.730;1.626;2024-03-06T00:59:24;9.45;7.00;6.30;95.00;95.50;95.50
84107;NextPM;74203;50.730;1.626;2024-03-06T01:01:32;9.35;6.90;6.20;95.00;95.50;95.50
84107;NextPM;74203;50.730;1.626;2024-03-06T01:03:39;9.05;6.70;6.05;88.00;88.50;88.50
84107;NextPM;74203;50.730;1.626;2024-03-06T01:05:47;8.65;6.40;5.75;83.50;84.00;84.50
84107;NextPM;74203;50.730;1.626;2024-03-06T01:07:54;9.05;6.70;6.00;89.50;90.00;90.00
84107;NextPM;74203;50.730;1.626;2024-03-06T01:10:01;8.35;6.20;5.55;84.00;84.50;84.50
84107;NextPM;74203;50.730;1.626;2024-03-06T01:12:10;8.25;6.10;5.50;80.50;80.50;81.00
84107;NextPM;74203;50.730;1.626;2024-03-06T01:14:17;8.20;6.05;5.45;78.50;78.50;78.50
84107;NextPM;74203;50.730;1.626;2024-03-06T01:16:24;7.45;5.50;4.95;76.50;76.50;77.00
84107;NextPM;74203;50.730;1.626;2024-03-06T01:18:32;8.30;6.15;5.50;79.00;79.50;80.00
84107;NextPM;74203;50.730;1.626;2024-03-06T01:20:39;8.35;6.20;5.60;80.50;81.00;81.00
84107;NextPM;74203;50.730;1.626;2024-03-06T01:22:47;8.40;6.20;5.60;83.00;84.00;84.00
84107;NextPM;74203;50.730;1.626;2024-03-06T01:24:54;8.25;6.10;5.50;81.00;81.50;81.50
84107;NextPM;74203;50.730;1.626;2024-03-06T01:27:02;8.80;6.45;5.85;82.50;82.50;83.00
84107;NextPM;74203;50.730;1.626;2024-03-06T01:29:09;8.00;5.90;5.30;78.50;78.50;78.50
84107;NextPM;74203;50.730;1.626;2024-03-06T01:31:17;8.40;6.20;5.60;81.50;81.50;81.50
84107;NextPM;74203;50.730;1.626;2024-03-06T01:33:24;7.45;5.50;5.00;73.00;73.50;73.50
84107;NextPM;74203;50.730;1.626;2024-03-06T01:35:32;7.75;5.75;5.20;73.00;73.00;73.50
84107;NextPM;74203;50.730;1.626;2024-03-06T01:37:39;7.70;5.65;5.10;75.00;75.00;75.50
84107;NextPM;74203;50.730;1.626;2024-03-06T01:39:46;7.90;5.85;5.25;77.00;78.00;78.00
84107;NextPM;74203;50.730;1.626;2024-03-06T01:41:54;7.05;5.20;4.70;69.00;69.00;69.00
84107;NextPM;74203;50.730;1.626;2024-03-06T01:44:01;7.30;5.40;4.85;71.00;71.50;71.50
84107;NextPM;74203;50.730;1.626;2024-03-06T01:46:09;7.55;5.60;5.00;69.50;70.50;70.50
84107;NextPM;74203;50.730;1.626;2024-03-06T01:48:17;7.00;5.15;4.65;68.00;68.50;69.00
84107;NextPM;74203;50.730;1.626;2024-03-06T01:50:27;7.20;5.35;4.80;69.50;70.00;70.00
84107;NextPM;74203;50.730;1.626;2024-03-06T01:52:35;7.00;5.15;4.65;66.50;67.00;67.00
84107;NextPM;74203;50.730;1.626;2024-03-06T01:54:44;6.80;5.00;4.55;68.00;69.00;69.00
84107;NextPM;74203;50.730;1.626;2024-03-06T01:56:52;7.15;5.30;4.80;70.00;70.00;70.00
84107;NextPM;74203;50.730;1.626;2024-03-06T01:59:02;6.60;4.85;4.35;61.50;62.50;62.50
84107;NextPM;74203;50.730;1.626;2024-03-06T02:01:10;6.00;4.45;3.95;58.00;58.50;58.50
84107;NextPM;74203;50.730;1.626;2024-03-06T02:03:19;5.90;4.35;3.95;57.50;57.50;57.50
84107;NextPM;74203;50.730;1.626;2024-03-06T02:05:30;5.95;4.45;4.00;59.50;59.50;59.50
84107;NextPM;74203;50.730;1.626;2024-03-06T02:07:38;6.75;4.95;4.50;63.00;64.00;64.00
84107;NextPM;74203;50.730;1.626;2024-03-06T02:09:47;5.70;4.20;3.80;55.00;55.00;55.50
84107;NextPM;74203;50.730;1.626;2024-03-06T02:11:55;5.80;4.30;3.85;57.00;57.00;57.50
84107;NextPM;74203;50.730;1.626;2024-03-06T02:14:02;5.40;4.00;3.60;53.00;53.00;53.50
84107;NextPM;74203;50.730;1.626;2024-03-06T02:16:11;5.60;4.15;3.75;55.50;55.50;55.50
84107;NextPM;74203;50.730;1.626;2024-03-06T02:18:18;5.85;4.35;3.85;57.50;57.50;57.50
84107;NextPM;74203;50.730;1.626;2024-03-06T02:20:26;5.35;3.90;3.55;52.50;53.50;53.50
84107;NextPM;74203;50.730;1.626;2024-03-06T02:22:33;5.75;4.20;3.80;56.00;56.50;56.50
84107;NextPM;74203;50.730;1.626;2024-03-06T02:24:44;5.70;4.20;3.80;55.00;55.00;55.00
84107;NextPM;74203;50.730;1.626;2024-03-06T02:26:53;5.45;4.05;3.65;53.50;53.50;53.50
84107;NextPM;74203;50.730;1.626;2024-03-06T02:29:00;5.75;4.25;3.85;57.50;57.50;57.50
84107;NextPM;74203;50.730;1.626;2024-03-06T02:31:08;5.80;4.25;3.85;57.00;57.50;57.50
84107;NextPM;74203;50.730;1.626;2024-03-06T02:33:15;5.65;4.15;3.75;56.00;56.00;56.50
84107;NextPM;74203;50.730;1.626;2024-03-06T02:35:23;5.90;4.35;3.90;56.50;56.50;56.50
84107;NextPM;74203;50.730;1.626;2024-03-06T02:37:30;5.25;3.90;3.50;53.00;53.00;53.50
84107;NextPM;74203;50.730;1.626;2024-03-06T02:39:38;5.40;4.00;3.60;53.50;53.50;53.50
84107;NextPM;74203;50.730;1.626;2024-03-06T02:41:45;5.80;4.30;3.85;56.00;56.00;56.00
84107;NextPM;74203;50.730;1.626;2024-03-06T02:43:53;6.75;5.00;4.50;66.00;66.00;66.50
84107;NextPM;74203;50.730;1.626;2024-03-06T02:46:00;6.85;5.05;4.55;67.50;68.00;68.00
84107;NextPM;74203;50.730;1.626;2024-03-06T02:48:09;7.15;5.25;4.70;70.50;71.00;71.00
84107;NextPM;74203;50.730;1.626;2024-03-06T02:50:17;6.15;4.50;4.10;60.00;60.00;60.00
84107;NextPM;74203;50.730;1.626;2024-03-06T02:52:24;5.80;4.30;3.80;58.50;58.50;58.50
84107;NextPM;74203;50.730;1.626;2024-03-06T02:54:31;6.50;4.85;4.30;65.50;65.50;65.50
84107;NextPM;74203;50.730;1.626;2024-03-06T02:56:39;6.70;4.95;4.45;64.50;65.50;65.50
84107;NextPM;74203;50.730;1.626;2024-03-06T02:58:46;6.90;5.10;4.60;67.00;67.00;68.00
84107;NextPM;74203;50.730;1.626;2024-03-06T03:00:53;6.55;4.85;4.35;63.00;63.50;63.50
84107;NextPM;74203;50.730;1.626;2024-03-06T03:03:01;6.90;5.10;4.55;67.00;67.00;67.00
84107;NextPM;74203;50.730;1.626;2024-03-06T03:05:10;6.45;4.80;4.30;66.50;67.00;67.00
84107;NextPM;74203;50.730;1.626;2024-03-06T03:07:17;6.30;4.60;4.15;62.50;63.00;63.00
84107;NextPM;74203;50.730;1.626;2024-03-06T03:09:24;6.10;4.55;4.05;60.50;61.00;61.00
84107;NextPM;74203;50.730;1.626;2024-03-06T03:11:32;5.70;4.20;3.80;58.00;58.50;58.50
84107;NextPM;74203;50.730;1.626;2024-03-06T03:13:39;5.95;4.40;4.00;60.00;60.00;60.00
84107;NextPM;74203;50.730;1.626;2024-03-06T03:15:47;6.15;4.55;4.05;62.00;62.00;62.00
84107;NextPM;74203;50.730;1.626;2024-03-06T03:17:54;5.95;4.40;3.95;60.00;60.00;60.00
84107;NextPM;74203;50.730;1.626;2024-03-06T03:20:02;5.85;4.30;3.90;57.50;58.00;58.00
84107;NextPM;74203;50.730;1.626;2024-03-06T03:22:11;5.40;4.00;3.55;54.50;54.50;54.50
84107;NextPM;74203;50.730;1.626;2024-03-06T03:24:18;5.55;4.10;3.70;54.50;54.50;55.50
84107;NextPM;74203;50.730;1.626;2024-03-06T03:26:25;6.15;4.55;4.10;61.00;61.50;61.50
84107;NextPM;74203;50.730;1.626;2024-03-06T03:28:33;6.25;4.60;4.15;61.50;62.00;62.00
84107;NextPM;74203;50.730;1.626;2024-03-06T03:30:41;6.80;5.00;4.50;68.50;68.50;68.50
84107;NextPM;74203;50.730;1.626;2024-03-06T03:32:49;6.65;4.90;4.45;63.50;64.00;64.00
84107;NextPM;74203;50.730;1.626;2024-03-06T03:34:56;6.60;4.85;4.40;64.50;65.50;65.50
84107;NextPM;74203;50.730;1.626;2024-03-06T03:37:04;6.80;5.00;4.50;67.50;67.50;67.50
84107;NextPM;74203;50.730;1.626;2024-03-06T03:39:12;6.55;4.80;4.35;66.00;66.00;66.50
84107;NextPM;74203;50.730;1.626;2024-03-06T03:41:19;6.25;4.60;4.15;64.00;64.00;64.00
84107;NextPM;74203;50.730;1.626;2024-03-06T03:43:27;6.15;4.55;4.05;60.50;61.00;61.50
84107;NextPM;74203;50.730;1.626;2024-03-06T03:45:34;5.60;4.15;3.70;54.00;55.00;55.00
84107;NextPM;74203;50.730;1.626;2024-03-06T03:47:42;6.60;4.90;4.40;65.00;65.00;65.00
84107;NextPM;74203;50.730;1.626;2024-03-06T03:49:49;6.95;5.10;4.60;66.00;66.50;67.00
84107;NextPM;74203;50.730;1.626;2024-03-06T03:51:56;6.90;5.15;4.60;68.00;68.50;69.00
84107;NextPM;74203;50.730;1.626;2024-03-06T03:54:04;6.70;4.90;4.40;66.50;66.50;66.50
84107;NextPM;74203;50.730;1.626;2024-03-06T03:56:12;7.15;5.25;4.75;70.00;70.00;70.50
84107;NextPM;74203;50.730;1.626;2024-03-06T03:58:20;6.50;4.80;4.30;66.00;66.50;66.50
84107;NextPM;74203;50.730;1.626;2024-03-06T04:00:27;7.35;5.40;4.90;71.50;72.00;72.00
84107;NextPM;74203;50.730;1.626;2024-03-06T04:02:34;9.50;7.05;6.30;91.50;91.50;91.50
84107;NextPM;74203;50.730;1.626;2024-03-06T04:04:42;8.25;6.05;5.45;82.00;82.50;82.50
84107;NextPM;74203;50.730;1.626;2024-03-06T04:06:49;8.65;6.40;5.70;87.00;87.00;87.50
84107;NextPM;74203;50.730;1.626;2024-03-06T04:08:57;9.25;6.80;6.15;91.50;91.50;91.50
84107;NextPM;74203;50.730;1.626;2024-03-06T04:11:04;10.70;7.90;7.10;107.00;107.00;107.00
84107;NextPM;74203;50.730;1.626;2024-03-06T04:13:12;11.05;8.20;7.40;111.50;112.00;112.00
84107;NextPM;74203;50.730;1.626;2024-03-06T04:15:20;10.75;7.90;7.15;108.50;109.00;109.00
84107;NextPM;74203;50.730;1.626;2024-03-06T04:17:27;10.85;7.95;7.20;107.50;108.00;108.00
84107;NextPM;74203;50.730;1.626;2024-03-06T04:19:35;10.80;8.00;7.20;107.50;107.50;107.50
84107;NextPM;74203;50.730;1.626;2024-03-06T04:21:43;10.60;7.85;7.05;106.00;106.50;106.50
84107;NextPM;74203;50.730;1.626;2024-03-06T04:23:50;11.40;8.40;7.60;111.50;112.50;112.50
84107;NextPM;74203;50.730;1.626;2024-03-06T04:25:58;10.45;7.70;6.95;105.50;106.00;106.00
84107;NextPM;74203;50.730;1.626;2024-03-06T04:28:06;11.80;8.75;7.85;118.50;119.00;119.00
84107;NextPM;74203;50.730;1.626;2024-03-06T04:30:14;11.10;8.15;7.35;111.00;111.50;111.50
84107;NextPM;74203;50.730;1.626;2024-03-06T04:32:22;11.15;8.25;7.45;111.00;111.50;112.00
84107;NextPM;74203;50.730;1.626;2024-03-06T04:34:29;12.00;8.85;7.95;121.00;121.50;121.50
84107;NextPM;74203;50.730;1.626;2024-03-06T04:36:36;11.60;8.55;7.70;118.00;118.50;118.50
84107;NextPM;74203;50.730;1.626;2024-03-06T04:38:44;13.05;9.65;8.65;130.50;131.50;131.50
84107;NextPM;74203;50.730;1.626;2024-03-06T04:40:51;13.85;10.20;9.20;140.00;140.50;140.50
84107;NextPM;74203;50.730;1.626;2024-03-06T04:42:58;13.70;10.10;9.10;137.00;138.00;138.00
84107;NextPM;74203;50.730;1.626;2024-03-06T04:45:08;13.30;9.80;8.85;134.50;135.00;135.00
84107;NextPM;74203;50.730;1.626;2024-03-06T04:47:19;13.70;10.10;9.10;137.00;138.00;138.00
84107;NextPM;74203;50.730;1.626;2024-03-06T04:49:28;13.00;9.60;8.65;131.00;131.50;131.50
84107;NextPM;74203;50.730;1.626;2024-03-06T04:51:39;12.60;9.30;8.40;127.50;128.00;128.00
84107;NextPM;74203;50.730;1.626;2024-03-06T04:53:47;12.95;9.55;8.60;131.00;131.50;131.50
84107;NextPM;74203;50.730;1.626;2024-03-06T04:55:55;13.00;9.55;8.65;129.00;129.50;130.00
84107;NextPM;74203;50.730;1.626;2024-03-06T04:58:02;13.50;9.95;9.00;134.00;134.50;134.50
84107;NextPM;74203;50.730;1.626;2024-03-06T05:00:11;13.95;10.30;9.25;137.50;138.50;138.50
84107;NextPM;74203;50.730;1.626;2024-03-06T05:02:20;14.85;10.95;9.85;149.50;150.50;150.50
84107;NextPM;74203;50.730;1.626;2024-03-06T05:04:27;14.50;10.70;9.65;144.00;144.50;144.50
84107;NextPM;74203;50.730;1.626;2024-03-06T05:06:34;14.50;10.75;9.65;147.50;148.50;148.50
84107;NextPM;74203;50.730;1.626;2024-03-06T05:08:42;14.90;11.00;9.90;145.00;145.00;145.00
84107;NextPM;74203;50.730;1.626;2024-03-06T05:10:49;14.35;10.60;9.55;144.00;145.00;145.00
84107;NextPM;74203;50.730;1.626;2024-03-06T05:12:57;15.25;11.30;10.15;151.00;151.50;152.00
84107;NextPM;74203;50.730;1.626;2024-03-06T05:15:04;14.25;10.55;9.45;140.50;140.50;140.50
84107;NextPM;74203;50.730;1.626;2024-03-06T05:17:13;13.90;10.25;9.25;143.50;144.00;144.00
84107;NextPM;74203;50.730;1.626;2024-03-06T05:19:20;14.20;10.50;9.45;141.00;141.50;141.50
84107;NextPM;74203;50.730;1.626;2024-03-06T05:21:27;13.90;10.30;9.25;138.50;139.00;139.00
84107;NextPM;74203;50.730;1.626;2024-03-06T05:23:35;13.75;10.15;9.15;139.00;139.50;140.00
84107;NextPM;74203;50.730;1.626;2024-03-06T05:25:42;14.30;10.55;9.55;142.00;142.50;143.00
84107;NextPM;74203;50.730;1.626;2024-03-06T05:27:50;14.05;10.40;9.35;141.00;141.00;141.00
84107;NextPM;74203;50.730;1.626;2024-03-06T05:29:57;13.30;9.85;8.85;134.00;134.50;134.50
84107;NextPM;74203;50.730;1.626;2024-03-06T05:32:05;12.90;9.55;8.55;130.00;130.00;131.00
84107;NextPM;74203;50.730;1.626;2024-03-06T05:34:13;12.20;9.00;8.10;122.50;123.00;123.00
84107;NextPM;74203;50.730;1.626;2024-03-06T05:36:20;12.20;9.00;8.10;124.50;125.50;125.50
84107;NextPM;74203;50.730;1.626;2024-03-06T05:38:28;11.95;8.85;8.00;119.50;119.50;120.50
84107;NextPM;74203;50.730;1.626;2024-03-06T05:40:35;12.55;9.30;8.35;127.00;127.50;127.50
84107;NextPM;74203;50.730;1.626;2024-03-06T05:42:42;12.75;9.40;8.50;130.00;131.00;131.00
84107;NextPM;74203;50.730;1.626;2024-03-06T05:44:50;12.85;9.45;8.55;128.00;128.50;128.50
84107;NextPM;74203;50.730;1.626;2024-03-06T05:46:57;12.20;9.00;8.10;122.00;122.00;122.50
84107;NextPM;74203;50.730;1.626;2024-03-06T05:49:06;12.35;9.10;8.20;124.50;124.50;124.50
84107;NextPM;74203;50.730;1.626;2024-03-06T05:51:13;12.10;8.95;8.05;122.00;122.50;122.50
84107;NextPM;74203;50.730;1.626;2024-03-06T05:53:21;12.15;9.00;8.10;123.00;123.50;123.50
84107;NextPM;74203;50.730;1.626;2024-03-06T05:55:28;12.60;9.35;8.40;125.50;126.00;126.00
84107;NextPM;74203;50.730;1.626;2024-03-06T05:57:36;13.05;9.65;8.70;131.00;131.50;131.50
84107;NextPM;74203;50.730;1.626;2024-03-06T05:59:43;13.00;9.60;8.65;129.50;129.50;129.50
84107;NextPM;74203;50.730;1.626;2024-03-06T06:01:50;13.00;9.60;8.65;128.50;129.00;129.00
84107;NextPM;74203;50.730;1.626;2024-03-06T06:03:58;13.40;9.90;8.95;132.50;133.50;133.50
84107;NextPM;74203;50.730;1.626;2024-03-06T06:06:06;12.80;9.45;8.50;129.50;129.50;129.50
84107;NextPM;74203;50.730;1.626;2024-03-06T06:08:14;12.30;9.10;8.20;123.00;123.00;123.00
84107;NextPM;74203;50.730;1.626;2024-03-06T06:10:21;12.90;9.55;8.60;127.00;127.00;127.50
84107;NextPM;74203;50.730;1.626;2024-03-06T06:12:28;13.05;9.65;8.65;133.00;133.50;133.50
84107;NextPM;74203;50.730;1.626;2024-03-06T06:14:36;12.35;9.15;8.25;124.50;124.50;124.50
84107;NextPM;74203;50.730;1.626;2024-03-06T06:16:43;12.65;9.35;8.40;125.00;125.00;125.00
84107;NextPM;74203;50.730;1.626;2024-03-06T06:18:50;11.55;8.55;7.70;118.00;118.00;118.00
84107;NextPM;74203;50.730;1.626;2024-03-06T06:20:58;12.15;8.95;8.05;119.00;120.00;120.00
84107;NextPM;74203;50.730;1.626;2024-03-06T06:23:06;12.40;9.20;8.25;121.50;121.50;121.50
84107;NextPM;74203;50.730;1.626;2024-03-06T06:25:13;11.85;8.75;7.90;120.00;120.50;120.50
84107;NextPM;74203;50.730;1.626;2024-03-06T06:27:21;10.90;8.10;7.25;109.50;109.50;109.50
84107;NextPM;74203;50.730;1.626;2024-03-06T06:29:29;11.45;8.45;7.65;114.00;114.50;114.50
84107;NextPM;74203;50.730;1.626;2024-03-06T06:31:36;10.20;7.55;6.75;103.50;103.50;104.00
84107;NextPM;74203;50.730;1.626;2024-03-06T06:33:44;10.85;8.00;7.20;106.50;107.00;107.00
84107;NextPM;74203;50.730;1.626;2024-03-06T06:35:51;10.75;7.95;7.15;108.00;108.50;109.00
84107;NextPM;74203;50.730;1.626;2024-03-06T06:37:58;10.65;7.90;7.10;105.00;105.00;105.00
84107;NextPM;74203;50.730;1.626;2024-03-06T06:40:07;10.75;7.95;7.15;107.00;107.00;107.00
84107;NextPM;74203;50.730;1.626;2024-03-06T06:42:16;11.05;8.15;7.30;108.50;109.00;109.00
84107;NextPM;74203;50.730;1.626;2024-03-06T06:44:24;10.15;7.55;6.80;102.50;102.50;102.50
84107;NextPM;74203;50.730;1.626;2024-03-06T06:46:31;9.85;7.30;6.60;98.50;98.50;99.00
84107;NextPM;74203;50.730;1.626;2024-03-06T06:48:38;10.30;7.60;6.85;104.00;104.50;105.00
84107;NextPM;74203;50.730;1.626;2024-03-06T06:50:46;10.75;7.90;7.15;102.50;103.00;103.00
84107;NextPM;74203;50.730;1.626;2024-03-06T06:52:53;10.65;7.90;7.10;106.00;106.00;106.00
84107;NextPM;74203;50.730;1.626;2024-03-06T06:55:01;11.00;8.15;7.30;111.50;111.50;111.50
84107;NextPM;74203;50.730;1.626;2024-03-06T06:57:08;10.05;7.40;6.70;101.00;101.00;102.00
84107;NextPM;74203;50.730;1.626;2024-03-06T06:59:16;9.85;7.30;6.60;100.00;100.00;100.00
84107;NextPM;74203;50.730;1.626;2024-03-06T07:01:23;10.10;7.45;6.75;98.50;99.00;99.00
84107;NextPM;74203;50.730;1.626;2024-03-06T07:03:31;9.90;7.35;6.60;99.00;99.50;99.50
84107;NextPM;74203;50.730;1.626;2024-03-06T07:05:38;10.15;7.45;6.75;99.50;100.00;100.00
84107;NextPM;74203;50.730;1.626;2024-03-06T07:07:46;10.45;7.75;6.95;102.50;103.50;103.50
84107;NextPM;74203;50.730;1.626;2024-03-06T07:09:53;10.15;7.45;6.70;102.50;103.00;103.00
84107;NextPM;74203;50.730;1.626;2024-03-06T07:12:00;10.30;7.60;6.85;104.50;105.00;105.50
84107;NextPM;74203;50.730;1.626;2024-03-06T07:14:08;11.85;8.75;7.85;115.00;115.00;115.50
84107;NextPM;74203;50.730;1.626;2024-03-06T07:16:16;12.40;9.15;8.25;123.50;124.00;124.00
84107;NextPM;74203;50.730;1.626;2024-03-06T07:18:23;13.10;9.65;8.75;130.50;131.50;131.50
84107;NextPM;74203;50.730;1.626;2024-03-06T07:20:30;14.80;10.95;9.85;146.50;147.00;147.00
84107;NextPM;74203;50.730;1.626;2024-03-06T07:22:38;14.75;10.90;9.80;145.00;145.50;146.00
84107;NextPM;74203;50.730;1.626;2024-03-06T07:24:45;14.05;10.40;9.30;142.50;142.50;142.50
84107;NextPM;74203;50.730;1.626;2024-03-06T07:26:53;13.95;10.30;9.30;139.50;139.50;139.50
84107;NextPM;74203;50.730;1.626;2024-03-06T07:29:00;14.40;10.65;9.60;144.00;144.00;145.00
84107;NextPM;74203;50.730;1.626;2024-03-06T07:31:07;14.95;11.05;9.95;149.00;150.00;150.00
84107;NextPM;74203;50.730;1.626;2024-03-06T07:33:15;15.95;11.80;10.65;162.00;162.50;162.50
84107;NextPM;74203;50.730;1.626;2024-03-06T07:35:22;17.75;13.10;11.80;178.00;179.00;179.00
84107;NextPM;74203;50.730;1.626;2024-03-06T07:37:30;19.20;14.20;12.75;189.00;189.00;189.00
84107;NextPM;74203;50.730;1.626;2024-03-06T07:39:37;18.95;14.00;12.65;189.50;189.50;190.00
84107;NextPM;74203;50.730;1.626;2024-03-06T07:41:45;19.00;14.00;12.60;186.50;187.50;187.50
84107;NextPM;74203;50.730;1.626;2024-03-06T07:43:52;20.35;15.10;13.55;202.00;202.00;202.00
84107;NextPM;74203;50.730;1.626;2024-03-06T07:46:00;22.05;16.25;14.70;204.00;205.00;205.50
84107;NextPM;74203;50.730;1.626;2024-03-06T07:48:08;20.65;15.30;13.75;205.00;206.50;206.50
84107;NextPM;74203;50.730;1.626;2024-03-06T07:50:15;20.45;15.10;13.60;204.00;205.00;205.00
84107;NextPM;74203;50.730;1.626;2024-03-06T07:52:23;21.30;15.75;14.15;210.50;211.50;211.50
84107;NextPM;74203;50.730;1.626;2024-03-06T07:54:30;20.70;15.30;13.80;208.00;209.00;209.00
84107;NextPM;74203;50.730;1.626;2024-03-06T07:56:37;21.30;15.80;14.20;213.00;213.50;214.00
84107;NextPM;74203;50.730;1.626;2024-03-06T07:58:45;22.00;16.25;14.65;222.00;223.50;223.50
84107;NextPM;74203;50.730;1.626;2024-03-06T08:00:52;23.75;17.60;15.85;234.00;235.00;235.00
84107;NextPM;74203;50.730;1.626;2024-03-06T08:02:59;23.35;17.25;15.55;235.00;236.00;236.00
84107;NextPM;74203;50.730;1.626;2024-03-06T08:05:07;21.95;16.25;14.65;217.50;218.00;218.50
84107;NextPM;74203;50.730;1.626;2024-03-06T08:07:16;22.10;16.35;14.70;216.00;217.50;217.50
84107;NextPM;74203;50.730;1.626;2024-03-06T08:09:23;22.65;16.75;15.05;225.00;226.00;226.00
84107;NextPM;74203;50.730;1.626;2024-03-06T08:11:30;22.90;16.95;15.25;228.50;229.50;229.50
84107;NextPM;74203;50.730;1.626;2024-03-06T08:13:38;23.00;17.00;15.30;225.50;226.50;226.50
84107;NextPM;74203;50.730;1.626;2024-03-06T08:15:45;20.75;15.40;13.85;203.00;204.00;204.00
84107;NextPM;74203;50.730;1.626;2024-03-06T08:17:53;17.80;13.15;11.85;174.00;175.50;175.50
84107;NextPM;74203;50.730;1.626;2024-03-06T08:20:00;18.65;13.85;12.45;176.00;177.00;177.50
84107;NextPM;74203;50.730;1.626;2024-03-06T08:22:08;18.20;13.45;12.10;174.50;175.50;176.50
84107;NextPM;74203;50.730;1.626;2024-03-06T08:24:15;19.20;14.20;12.80;179.50;181.00;181.50
84107;NextPM;74203;50.730;1.626;2024-03-06T08:26:23;18.80;13.95;12.50;176.50;178.00;178.00
84107;NextPM;74203;50.730;1.626;2024-03-06T08:28:30;19.60;14.50;13.05;177.50;178.50;179.50
84107;NextPM;74203;50.730;1.626;2024-03-06T08:30:38;19.25;14.20;12.80;182.00;183.50;184.00
84107;NextPM;74203;50.730;1.626;2024-03-06T08:32:45;18.40;13.65;12.25;170.50;172.00;173.00
84107;NextPM;74203;50.730;1.626;2024-03-06T08:34:53;20.20;14.90;13.45;181.00;182.50;183.50
84107;NextPM;74203;50.730;1.626;2024-03-06T08:37:00;21.15;15.60;14.10;186.00;188.50;189.50
84107;NextPM;74203;50.730;1.626;2024-03-06T08:39:08;21.95;16.25;14.65;187.50;191.00;192.00
84107;NextPM;74203;50.730;1.626;2024-03-06T08:41:16;20.90;15.45;13.90;186.50;188.50;189.00
84107;NextPM;74203;50.730;1.626;2024-03-06T08:43:27;20.45;15.10;13.60;188.00;190.00;190.50
84107;NextPM;74203;50.730;1.626;2024-03-06T08:45:34;20.65;15.25;13.75;184.50;186.50;187.50
84107;NextPM;74203;50.730;1.626;2024-03-06T08:47:41;18.05;13.35;12.00;172.00;173.00;174.00
84107;NextPM;74203;50.730;1.626;2024-03-06T08:49:50;16.90;12.50;11.25;157.50;158.50;159.50
84107;NextPM;74203;50.730;1.626;2024-03-06T08:51:58;17.35;12.80;11.55;166.00;166.50;167.00
84107;NextPM;74203;50.730;1.626;2024-03-06T08:54:05;15.35;11.35;10.25;156.00;156.50;157.00
84107;NextPM;74203;50.730;1.626;2024-03-06T08:56:13;17.90;13.25;11.90;175.50;176.00;177.00
84107;NextPM;74203;50.730;1.626;2024-03-06T08:58:20;16.60;12.25;11.05;165.50;166.00;166.00
84107;NextPM;74203;50.730;1.626;2024-03-06T09:00:27;16.15;11.90;10.75;163.00;163.50;163.50
84107;NextPM;74203;50.730;1.626;2024-03-06T09:02:35;15.45;11.45;10.30;154.50;154.50;154.50
84107;NextPM;74203;50.730;1.626;2024-03-06T09:04:43;14.55;10.80;9.70;144.00;144.50;145.00
84107;NextPM;74203;50.730;1.626;2024-03-06T09:06:51;14.35;10.65;9.55;142.50;143.00;143.00
84107;NextPM;74203;50.730;1.626;2024-03-06T09:08:58;14.45;10.70;9.60;143.50;143.50;144.00
84107;NextPM;74203;50.730;1.626;2024-03-06T09:11:05;13.45;9.95;9.00;134.50;134.50;134.50
84107;NextPM;74203;50.730;1.626;2024-03-06T09:13:13;13.30;9.80;8.85;129.50;130.00;130.00
84107;NextPM;74203;50.730;1.626;2024-03-06T09:15:20;11.90;8.80;7.90;120.50;120.50;120.50
84107;NextPM;74203;50.730;1.626;2024-03-06T09:17:28;11.75;8.70;7.85;116.00;116.50;116.50
84107;NextPM;74203;50.730;1.626;2024-03-06T09:19:36;11.25;8.35;7.50;115.50;116.50;116.50
84107;NextPM;74203;50.730;1.626;2024-03-06T09:21:43;10.30;7.60;6.85;104.00;104.00;104.00
84107;NextPM;74203;50.730;1.626;2024-03-06T09:23:51;10.65;7.85;7.05;107.50;108.00;108.00
84107;NextPM;74203;50.730;1.626;2024-03-06T09:25:58;11.50;8.50;7.65;117.00;117.50;117.50
84107;NextPM;74203;50.730;1.626;2024-03-06T09:28:06;10.65;7.90;7.10;108.50;108.50;108.50
84107;NextPM;74203;50.730;1.626;2024-03-06T09:30:13;10.60;7.80;7.05;107.00;107.00;107.00
84107;NextPM;74203;50.730;1.626;2024-03-06T09:32:21;10.55;7.80;7.00;107.50;108.00;108.00
84107;NextPM;74203;50.730;1.626;2024-03-06T09:34:28;10.75;7.95;7.20;109.00;109.50;110.00
84107;NextPM;74203;50.730;1.626;2024-03-06T09:36:36;10.85;8.05;7.25;110.00;110.00;110.00